Time;durP1;ratioP1;P1;durP2;ratioP2;P2;SDS_P1;SDS_P2;PMS_P1;PMS_P2;Temp;Humidity;BMP_temperature;BMP_pressure;BME280_temperature;BME280_humidity;BME280_pressure;Samples;Min_cycle;Max_cycle;Signal;HPM_P1;HPM_P2
2022/03/25 00:00:25;;;;;;;97.85;42.53;;;2.60;99.90;;;;;;5055667;28;20179;-84
2022/03/25 00:02:52;;;;;;;112.45;34.15;;;2.60;99.90;;;;;;5061540;28;20078;-84
2022/03/25 00:05:17;;;;;;;165.20;66.78;;;2.40;99.90;;;;;;5057289;28;20104;-85
2022/03/25 00:07:43;;;;;;;48.80;32.78;;;2.50;99.90;;;;;;5062684;28;20491;-85
2022/03/25 00:10:09;;;;;;;48.03;28.92;;;2.50;99.90;;;;;;5062111;28;20157;-85
2022/03/25 00:12:34;;;;;;;137.23;61.33;;;2.20;99.90;;;;;;5060235;28;20032;-84
2022/03/25 00:15:00;;;;;;;79.47;43.45;;;2.40;99.90;;;;;;5077551;28;20135;-85
2022/03/25 00:17:26;;;;;;;84.50;28.20;;;2.50;99.90;;;;;;5077134;28;20422;-86
2022/03/25 00:19:51;;;;;;;51.60;27.38;;;2.20;99.90;;;;;;5073619;28;20055;-86
2022/03/25 00:22:17;;;;;;;41.33;27.92;;;2.00;99.90;;;;;;5076847;28;20516;-85
2022/03/25 00:24:43;;;;;;;55.33;30.70;;;1.80;99.90;;;;;;5077389;28;20035;-84
2022/03/25 00:27:09;;;;;;;69.00;37.80;;;1.70;99.90;;;;;;5060985;28;20043;-84
2022/03/25 00:29:35;;;;;;;88.80;46.30;;;1.90;99.90;;;;;;5060368;28;20442;-84
2022/03/25 00:32:02;;;;;;;61.47;31.38;;;1.90;99.90;;;;;;5092267;28;20035;-85
2022/03/25 00:34:28;;;;;;;95.65;48.72;;;1.60;99.90;;;;;;5078269;28;20497;-83
2022/03/25 00:36:54;;;;;;;75.50;36.67;;;1.80;99.90;;;;;;5099907;27;20036;-85
2022/03/25 00:39:20;;;;;;;291.23;50.53;;;1.70;99.90;;;;;;5060608;28;20032;-85
2022/03/25 00:41:47;;;;;;;48.50;31.65;;;1.60;99.90;;;;;;5061731;28;20108;-85
2022/03/25 00:44:14;;;;;;;50.85;32.60;;;1.50;99.90;;;;;;5058407;28;20074;-85
2022/03/25 00:46:40;;;;;;;39.80;28.90;;;1.60;99.90;;;;;;5074146;28;20028;-84
2022/03/25 00:49:06;;;;;;;79.97;36.20;;;1.50;99.90;;;;;;5092707;27;20055;-85
2022/03/25 00:51:32;;;;;;;52.00;34.05;;;1.40;99.90;;;;;;5060478;28;20035;-85
2022/03/25 00:53:58;;;;;;;169.23;41.33;;;1.40;99.90;;;;;;5060439;28;20054;-85
2022/03/25 00:56:24;;;;;;;229.10;35.33;;;1.40;99.90;;;;;;5070436;28;20475;-85
2022/03/25 00:58:50;;;;;;;154.32;41.45;;;1.20;99.90;;;;;;5056123;28;20477;-85
2022/03/25 01:01:16;;;;;;;78.53;34.70;;;1.40;99.90;;;;;;5073598;28;20243;-84
2022/03/25 01:03:43;;;;;;;104.32;38.55;;;1.10;99.90;;;;;;5059974;28;20239;-85
2022/03/25 01:06:09;;;;;;;97.28;36.78;;;1.00;99.90;;;;;;5073009;28;20085;-84
2022/03/25 01:08:35;;;;;;;150.43;35.45;;;0.90;99.90;;;;;;5077575;28;20042;-84
2022/03/25 01:11:04;;;;;;;88.75;35.42;;;0.80;99.90;;;;;;5070957;28;20165;-85
2022/03/25 01:13:33;;;;;;;109.25;33.20;;;0.80;99.90;;;;;;5090083;28;20032;-85
2022/03/25 01:16:05;;;;;;;130.98;35.08;;;0.80;99.90;;;;;;5057769;28;20035;-85
2022/03/25 01:18:31;;;;;;;155.50;37.38;;;0.80;99.90;;;;;;5073674;28;20123;-85
2022/03/25 01:20:57;;;;;;;110.90;34.08;;;0.80;99.90;;;;;;5070225;28;20251;-86
2022/03/25 01:23:23;;;;;;;84.05;31.30;;;0.70;99.90;;;;;;5062997;28;20082;-86
2022/03/25 01:25:49;;;;;;;72.20;30.27;;;0.60;99.90;;;;;;5060978;28;20419;-86
2022/03/25 01:28:15;;;;;;;54.83;29.70;;;0.20;99.90;;;;;;5056924;28;20039;-87
2022/03/25 01:30:41;;;;;;;185.52;33.33;;;0.20;99.90;;;;;;5058623;28;20640;-86
2022/03/25 01:33:07;;;;;;;195.70;32.00;;;0.30;99.90;;;;;;5059667;28;20035;-86
2022/03/25 01:35:33;;;;;;;216.20;33.38;;;0.20;99.90;;;;;;5075786;28;20036;-85
2022/03/25 01:37:58;;;;;;;123.63;32.00;;;0.30;99.90;;;;;;5058404;28;20031;-86
2022/03/25 01:40:24;;;;;;;142.85;31.52;;;0.30;99.90;;;;;;5077606;28;20567;-86
2022/03/25 01:42:51;;;;;;;62.08;28.17;;;0.30;99.90;;;;;;5077418;28;20039;-86
2022/03/25 01:45:34;;;;;;;63.10;27.65;;;0.20;99.90;;;;;;5076379;28;20469;-86
2022/03/25 01:48:10;;;;;;;112.47;30.15;;;0.10;99.90;;;;;;5058565;28;20084;-86
2022/03/25 01:50:36;;;;;;;63.55;28.67;;;0.20;99.90;;;;;;5062074;28;20039;-86
2022/03/25 01:53:03;;;;;;;78.30;27.70;;;0.10;99.90;;;;;;5062168;28;20375;-87
2022/03/25 01:55:36;;;;;;;51.33;26.50;;;0.10;99.90;;;;;;5060858;28;20042;-87
2022/03/25 01:58:03;;;;;;;47.60;26.70;;;-0.10;99.90;;;;;;5062456;28;20119;-86
2022/03/25 02:00:29;;;;;;;46.75;27.55;;;0.10;99.90;;;;;;5060193;28;20047;-87
2022/03/25 02:02:55;;;;;;;36.58;26.35;;;-0.10;99.90;;;;;;5071242;28;20097;-87
2022/03/25 02:05:21;;;;;;;67.25;38.15;;;0.00;99.90;;;;;;5075551;28;20039;-88
2022/03/25 02:07:47;;;;;;;40.50;28.67;;;0.20;99.90;;;;;;5061260;28;20035;-86
2022/03/25 02:10:15;;;;;;;44.35;26.15;;;0.10;99.90;;;;;;5079561;28;20126;-86
2022/03/25 02:12:41;;;;;;;40.55;27.40;;;0.10;99.90;;;;;;5062881;28;20079;-88
2022/03/25 02:15:08;;;;;;;36.88;27.45;;;0.00;99.90;;;;;;5062638;28;20067;-88
2022/03/25 02:17:39;;;;;;;37.67;27.38;;;0.10;99.90;;;;;;5082087;28;20051;-87
2022/03/25 02:20:08;;;;;;;34.88;26.10;;;0.00;99.90;;;;;;5065522;28;20104;-86
2022/03/25 02:22:38;;;;;;;35.30;26.77;;;0.00;99.90;;;;;;5064040;28;20130;-88
2022/03/25 02:25:08;;;;;;;43.10;26.35;;;-0.10;99.90;;;;;;5079175;28;20047;-87
2022/03/25 02:27:36;;;;;;;60.90;26.85;;;-0.10;99.90;;;;;;5061515;28;20120;-88
2022/03/25 02:30:07;;;;;;;38.50;27.60;;;-0.10;99.90;;;;;;5063269;28;20475;-88
2022/03/25 02:32:33;;;;;;;35.80;27.15;;;-0.10;99.90;;;;;;5079750;28;20035;-87
2022/03/25 02:34:59;;;;;;;36.20;26.25;;;-0.20;99.90;;;;;;5064464;28;20455;-87
2022/03/25 02:37:34;;;;;;;36.50;26.92;;;-0.10;99.90;;;;;;5067125;28;20122;-89
2022/03/25 02:40:17;;;;;;;37.58;28.05;;;-0.10;99.90;;;;;;5089013;27;20461;-88
2022/03/25 02:42:42;;;;;;;35.50;26.58;;;-0.20;99.90;;;;;;5067417;28;20558;-87
2022/03/25 02:45:09;;;;;;;38.95;27.38;;;-0.10;99.90;;;;;;5081752;28;20189;-87
2022/03/25 02:47:34;;;;;;;36.97;27.05;;;-0.10;99.90;;;;;;5082283;28;20067;-87
2022/03/25 02:50:06;;;;;;;36.17;27.23;;;-0.20;99.90;;;;;;5062896;28;20518;-88
2022/03/25 02:52:35;;;;;;;54.20;27.17;;;-0.40;99.90;;;;;;5082777;28;20507;-88
2022/03/25 02:55:00;;;;;;;56.63;27.42;;;-0.30;99.90;;;;;;5066163;28;20481;-88
2022/03/25 02:57:26;;;;;;;71.20;28.45;;;-0.40;99.90;;;;;;5061744;28;20047;-88
2022/03/25 02:59:52;;;;;;;37.03;26.95;;;-0.30;99.90;;;;;;5056184;28;20057;-87
2022/03/25 03:02:18;;;;;;;49.42;28.17;;;-0.40;99.90;;;;;;5058792;28;20127;-87
2022/03/25 03:04:43;;;;;;;44.08;27.60;;;-0.30;99.90;;;;;;5090006;28;20032;-87
2022/03/25 03:07:09;;;;;;;79.45;30.92;;;-0.30;99.90;;;;;;5062573;28;20263;-87
2022/03/25 03:09:34;;;;;;;61.20;28.80;;;-0.50;99.90;;;;;;5059718;28;20043;-88
2022/03/25 03:12:03;;;;;;;69.63;30.92;;;-0.50;99.90;;;;;;5063157;28;20115;-88
2022/03/25 03:14:29;;;;;;;81.72;32.10;;;-0.60;99.90;;;;;;5062772;28;20166;-86
2022/03/25 03:16:55;;;;;;;99.47;30.52;;;-0.50;99.90;;;;;;5059305;28;20127;-88
2022/03/25 03:19:20;;;;;;;51.88;28.92;;;-0.60;99.90;;;;;;5056287;28;20076;-87
2022/03/25 03:21:46;;;;;;;50.70;30.48;;;-0.50;99.90;;;;;;5074834;28;20390;-88
2022/03/25 03:24:12;;;;;;;41.80;28.83;;;-0.50;99.90;;;;;;5059133;28;20087;-87
2022/03/25 03:26:37;;;;;;;46.67;29.00;;;-0.70;99.90;;;;;;5059163;28;20086;-88
2022/03/25 03:29:04;;;;;;;83.32;29.30;;;-0.60;99.90;;;;;;5058687;28;20036;-87
2022/03/25 03:31:30;;;;;;;91.13;30.23;;;-0.80;99.90;;;;;;5058316;28;20250;-88
2022/03/25 03:33:55;;;;;;;54.50;31.67;;;-0.70;99.90;;;;;;5061319;28;20474;-87
2022/03/25 03:36:21;;;;;;;195.57;33.08;;;-0.50;99.90;;;;;;5055051;28;20422;-87
2022/03/25 03:38:47;;;;;;;323.23;43.30;;;-0.70;99.90;;;;;;5073258;28;20089;-87
2022/03/25 03:41:13;;;;;;;224.43;34.28;;;-0.50;99.90;;;;;;5074269;28;20036;-86
2022/03/25 03:43:39;;;;;;;207.98;33.10;;;-0.70;99.90;;;;;;5076720;28;20352;-87
2022/03/25 03:46:05;;;;;;;250.70;32.70;;;-0.60;99.90;;;;;;5053397;28;20043;-87
2022/03/25 03:48:31;;;;;;;184.57;32.13;;;-0.60;99.90;;;;;;5060350;28;20032;-87
2022/03/25 03:50:58;;;;;;;183.80;33.78;;;-0.80;99.90;;;;;;5062574;28;20036;-87
2022/03/25 03:53:24;;;;;;;293.88;38.08;;;-0.70;99.90;;;;;;5090920;27;20040;-85
2022/03/25 03:55:49;;;;;;;185.98;33.72;;;-0.70;99.90;;;;;;5078584;28;20079;-87
2022/03/25 03:58:15;;;;;;;217.70;34.85;;;-0.60;99.90;;;;;;5058540;28;20066;-88
2022/03/25 04:00:41;;;;;;;150.48;31.77;;;-0.70;99.90;;;;;;5085417;28;20066;-87
2022/03/25 04:03:07;;;;;;;248.57;37.25;;;-0.80;99.90;;;;;;5062210;28;20618;-87
2022/03/25 04:05:45;;;;;;;228.57;38.10;;;-0.70;99.90;;;;;;5081390;28;20047;-87
2022/03/25 04:08:11;;;;;;;138.50;30.40;;;-0.70;99.90;;;;;;5064842;28;20142;-88
2022/03/25 04:10:37;;;;;;;173.18;32.75;;;-1.00;99.90;;;;;;5062323;28;20123;-86
2022/03/25 04:13:03;;;;;;;181.32;33.72;;;-0.80;99.90;;;;;;5065313;28;20036;-88
2022/03/25 04:15:47;;;;;;;189.88;32.35;;;-0.90;99.90;;;;;;5061164;28;20032;-88
2022/03/25 04:18:12;;;;;;;200.82;32.08;;;-1.00;99.90;;;;;;5077561;28;20048;-87
2022/03/25 04:20:38;;;;;;;194.10;33.10;;;-1.10;99.90;;;;;;5078170;28;20047;-86
2022/03/25 04:23:04;;;;;;;112.95;30.50;;;-1.00;99.90;;;;;;5062848;28;20042;-86
2022/03/25 04:25:38;;;;;;;239.75;34.33;;;-1.10;99.90;;;;;;5063143;28;20032;-87
2022/03/25 04:28:07;;;;;;;173.88;34.63;;;-1.20;99.90;;;;;;5060911;28;20113;-86
2022/03/25 04:30:40;;;;;;;103.18;36.13;;;-1.10;99.90;;;;;;5063155;28;20031;-88
2022/03/25 04:33:06;;;;;;;66.18;33.05;;;-0.90;99.90;;;;;;5079907;28;20320;-87
2022/03/25 04:35:32;;;;;;;125.07;38.70;;;-0.90;99.90;;;;;;5064902;28;20244;-88
2022/03/25 04:38:02;;;;;;;56.30;33.13;;;-0.90;99.90;;;;;;5060332;28;20050;-88
2022/03/25 04:40:29;;;;;;;183.13;39.70;;;-0.90;99.90;;;;;;5061474;28;20059;-88
2022/03/25 04:42:58;;;;;;;125.38;34.50;;;-0.90;99.90;;;;;;5075337;28;20330;-88
2022/03/25 04:45:25;;;;;;;75.85;31.10;;;-0.90;99.90;;;;;;5059999;28;20039;-87
2022/03/25 04:47:51;;;;;;;60.05;30.92;;;-1.00;99.90;;;;;;5077414;28;20348;-87
2022/03/25 04:50:18;;;;;;;77.45;30.85;;;-1.10;99.90;;;;;;5059056;28;20545;-86
2022/03/25 04:52:54;;;;;;;66.63;31.15;;;-1.20;99.90;;;;;;5060137;28;20096;-88
2022/03/25 04:55:20;;;;;;;68.72;30.75;;;-1.10;99.90;;;;;;5063488;28;20039;-88
2022/03/25 04:57:50;;;;;;;68.60;30.35;;;-1.10;99.90;;;;;;5080079;28;20556;-87
2022/03/25 05:00:35;;;;;;;58.55;32.83;;;-1.10;99.90;;;;;;5124449;27;20509;-87
2022/03/25 05:03:00;;;;;;;47.22;30.40;;;-1.10;99.90;;;;;;5093222;28;20067;-88
2022/03/25 05:05:31;;;;;;;45.65;30.45;;;-1.10;99.90;;;;;;5088732;28;20055;-87
2022/03/25 05:07:58;;;;;;;47.10;29.85;;;-1.20;99.90;;;;;;5094536;28;20567;-86
2022/03/25 05:10:24;;;;;;;46.65;30.58;;;-1.20;99.90;;;;;;5096849;28;20533;-87
2022/03/25 05:12:50;;;;;;;45.58;30.10;;;-1.20;99.90;;;;;;5110457;28;20411;-88
2022/03/25 05:15:18;;;;;;;44.05;30.15;;;-1.20;99.90;;;;;;5094544;28;20066;-89
2022/03/25 05:17:47;;;;;;;52.70;30.58;;;-1.20;99.90;;;;;;5095846;28;20047;-88
2022/03/25 05:20:15;;;;;;;45.55;30.30;;;-1.00;99.90;;;;;;5095282;28;20406;-87
2022/03/25 05:22:41;;;;;;;47.70;29.55;;;-1.10;99.90;;;;;;5111631;28;20080;-86
2022/03/25 05:25:08;;;;;;;47.97;29.77;;;-1.00;99.90;;;;;;5095523;28;20039;-85
2022/03/25 05:27:49;;;;;;;48.88;30.67;;;-1.20;99.90;;;;;;5092653;28;20055;-86
2022/03/25 05:30:19;;;;;;;48.58;30.60;;;-1.10;99.90;;;;;;5093910;28;20428;-87
2022/03/25 05:32:45;;;;;;;48.40;29.25;;;-1.00;99.90;;;;;;5098075;28;20165;-87
2022/03/25 05:35:11;;;;;;;48.15;31.05;;;-1.00;99.90;;;;;;5092045;28;20577;-87
2022/03/25 05:37:38;;;;;;;51.25;31.27;;;-1.10;99.90;;;;;;5109641;28;20031;-88
2022/03/25 05:40:05;;;;;;;43.60;29.15;;;-1.00;99.90;;;;;;5093239;28;20072;-87
2022/03/25 05:42:32;;;;;;;48.60;31.33;;;-0.90;99.90;;;;;;5091613;28;20065;-88
2022/03/25 05:44:58;;;;;;;44.78;29.33;;;-1.00;99.90;;;;;;5095579;28;20486;-88
2022/03/25 05:47:23;;;;;;;47.35;28.80;;;-0.80;99.90;;;;;;5096398;28;20034;-87
2022/03/25 05:49:49;;;;;;;50.08;30.83;;;-0.60;99.90;;;;;;5107390;28;20053;-86
2022/03/25 05:52:15;;;;;;;51.90;31.63;;;-0.70;99.90;;;;;;5113613;28;20039;-88
2022/03/25 05:54:44;;;;;;;53.63;31.55;;;-0.60;99.90;;;;;;5108213;28;20097;-88
2022/03/25 05:57:10;;;;;;;51.53;32.28;;;-0.60;99.90;;;;;;5110858;28;20039;-87
2022/03/25 05:59:35;;;;;;;57.97;33.45;;;-0.60;99.90;;;;;;5096673;28;20048;-88
2022/03/25 06:02:01;;;;;;;61.22;34.10;;;-0.50;99.90;;;;;;5093776;28;20134;-88
2022/03/25 06:04:27;;;;;;;49.00;31.10;;;-0.40;99.90;;;;;;5108696;28;20142;-88
2022/03/25 06:06:53;;;;;;;50.40;32.15;;;-0.60;99.90;;;;;;5097134;28;20042;-88
2022/03/25 06:09:22;;;;;;;52.58;32.92;;;-0.50;99.90;;;;;;5094058;28;20566;-88
2022/03/25 06:11:48;;;;;;;48.80;31.45;;;-0.40;99.90;;;;;;5096659;28;20039;-88
2022/03/25 06:14:17;;;;;;;60.17;33.35;;;-0.30;99.90;;;;;;5080188;28;20291;-87
2022/03/25 06:17:05;;;;;;;59.25;33.58;;;-0.20;99.90;;;;;;5078347;28;20630;-88
2022/03/25 06:19:31;;;;;;;62.55;34.33;;;0.00;99.90;;;;;;5079693;28;20044;-87
2022/03/25 06:21:57;;;;;;;57.08;33.30;;;0.10;99.90;;;;;;5079566;28;20370;-87
2022/03/25 06:24:30;;;;;;;72.10;38.83;;;0.10;99.90;;;;;;5095696;28;20391;-86
2022/03/25 06:27:00;;;;;;;64.88;35.10;;;0.30;99.90;;;;;;5076864;28;20036;-87
2022/03/25 06:29:26;;;;;;;63.58;35.65;;;0.40;99.90;;;;;;5073362;28;20098;-86
2022/03/25 06:31:51;;;;;;;64.68;36.58;;;0.50;99.90;;;;;;5079756;28;20104;-86
2022/03/25 06:34:20;;;;;;;59.25;35.05;;;0.60;99.90;;;;;;5076353;28;20028;-87
2022/03/25 06:36:48;;;;;;;68.20;37.92;;;0.60;99.90;;;;;;5077414;28;20618;-86
2022/03/25 06:39:14;;;;;;;58.90;35.72;;;0.70;99.90;;;;;;5081937;28;20278;-87
2022/03/25 06:41:40;;;;;;;56.05;34.55;;;1.00;99.90;;;;;;5078301;28;20032;-87
2022/03/25 06:44:06;;;;;;;69.40;38.47;;;0.90;99.90;;;;;;5092881;28;20043;-87
2022/03/25 06:46:32;;;;;;;64.07;35.70;;;1.20;99.90;;;;;;5079882;28;20561;-87
2022/03/25 06:48:58;;;;;;;54.13;32.40;;;1.20;99.90;;;;;;5095957;28;20035;-87
2022/03/25 06:51:24;;;;;;;72.90;38.60;;;1.20;99.90;;;;;;5082206;28;20039;-87
2022/03/25 06:53:50;;;;;;;55.28;35.88;;;1.50;99.90;;;;;;5095933;27;20091;-86
2022/03/25 06:56:16;;;;;;;56.85;34.83;;;1.50;99.90;;;;;;5076637;28;20031;-87
2022/03/25 06:58:42;;;;;;;73.93;39.85;;;1.60;99.90;;;;;;5077943;28;20122;-86
2022/03/25 07:01:08;;;;;;;68.05;36.40;;;1.70;99.90;;;;;;5095209;28;20540;-87
2022/03/25 07:03:34;;;;;;;55.33;34.45;;;1.80;99.90;;;;;;5094603;28;20034;-87
2022/03/25 07:06:01;;;;;;;58.95;36.00;;;1.90;99.90;;;;;;5079783;28;22113;-86
2022/03/25 07:08:31;;;;;;;60.47;35.75;;;1.90;99.90;;;;;;5080159;28;20046;-87
2022/03/25 07:10:59;;;;;;;53.35;33.33;;;2.10;99.90;;;;;;5077752;28;20093;-86
2022/03/25 07:13:27;;;;;;;53.60;33.72;;;2.30;99.90;;;;;;5081435;28;20032;-86
2022/03/25 07:15:53;;;;;;;73.90;40.63;;;2.50;99.90;;;;;;5093225;28;20140;-87
2022/03/25 07:18:19;;;;;;;70.57;38.67;;;2.60;99.90;;;;;;5081174;28;20195;-87
2022/03/25 07:20:44;;;;;;;79.18;40.75;;;2.90;99.90;;;;;;5078958;28;20146;-87
2022/03/25 07:23:10;;;;;;;76.20;41.22;;;3.10;99.90;;;;;;5077795;28;20036;-89
2022/03/25 07:25:36;;;;;;;83.97;43.58;;;3.40;99.90;;;;;;5079930;28;20145;-88
2022/03/25 07:28:04;;;;;;;82.90;44.95;;;3.60;99.90;;;;;;5080375;28;20039;-90
2022/03/25 07:30:32;;;;;;;85.82;44.72;;;3.80;99.90;;;;;;5082789;28;20056;-88
2022/03/25 07:33:07;;;;;;;92.25;47.22;;;4.00;99.90;;;;;;5078842;28;20143;-88
2022/03/25 07:35:33;;;;;;;96.38;49.00;;;4.20;99.90;;;;;;5095768;28;20070;-87
2022/03/25 07:37:59;;;;;;;92.50;46.50;;;4.30;99.90;;;;;;5094888;28;20425;-86
2022/03/25 07:40:26;;;;;;;82.88;43.50;;;4.60;99.90;;;;;;5076979;28;20551;-87
2022/03/25 07:42:51;;;;;;;83.10;46.10;;;4.70;99.90;;;;;;5080648;28;20455;-86
2022/03/25 07:45:17;;;;;;;89.07;46.38;;;4.90;99.90;;;;;;5070653;28;20142;-87
2022/03/25 07:47:46;;;;;;;98.28;48.97;;;5.30;99.90;;;;;;5088480;28;20052;-86
2022/03/25 07:50:14;;;;;;;85.80;47.58;;;5.50;99.90;;;;;;5092375;28;20583;-86
2022/03/25 07:52:41;;;;;;;79.75;43.83;;;5.70;99.90;;;;;;5076547;28;20043;-86
2022/03/25 07:55:09;;;;;;;79.28;43.92;;;5.90;99.90;;;;;;5028970;28;20058;-86
2022/03/25 07:57:35;;;;;;;70.65;41.33;;;6.10;99.90;;;;;;5028832;28;20062;-86
2022/03/25 08:00:03;;;;;;;70.10;40.53;;;6.30;99.90;;;;;;5054934;28;20150;-87
2022/03/25 08:02:29;;;;;;;65.43;36.95;;;6.60;99.90;;;;;;5058246;28;20190;-86
2022/03/25 08:04:55;;;;;;;58.55;35.97;;;6.70;99.90;;;;;;5058493;28;20131;-86
2022/03/25 08:07:21;;;;;;;55.42;33.85;;;6.90;99.90;;;;;;5052040;28;20250;-86
2022/03/25 08:09:46;;;;;;;54.55;33.38;;;7.20;99.90;;;;;;5040978;28;20033;-86
2022/03/25 08:12:12;;;;;;;50.55;31.90;;;7.60;99.90;;;;;;5040970;28;20407;-86
2022/03/25 08:14:38;;;;;;;41.30;27.65;;;7.90;99.90;;;;;;5040183;28;20032;-86
2022/03/25 08:17:08;;;;;;;39.80;25.95;;;8.00;1.00;;;;;;5038516;28;20658;-86
2022/03/25 08:19:33;;;;;;;43.08;26.55;;;8.10;99.90;;;;;;5038120;28;20365;-87
2022/03/25 08:22:02;;;;;;;46.08;26.20;;;8.40;99.90;;;;;;5059461;28;20322;-86
2022/03/25 08:30:15;;;;;;;37.75;24.05;;;8.90;99.90;;;;;;5058212;28;20115;-86
2022/03/25 08:32:40;;;;;;;36.33;23.40;;;9.00;1.00;;;;;;5037991;28;20052;-86
2022/03/25 08:35:07;;;;;;;34.97;23.42;;;9.20;99.90;;;;;;5038630;28;20036;-87
2022/03/25 08:37:33;;;;;;;35.85;23.00;;;9.30;1.00;;;;;;5055167;28;20119;-86
2022/03/25 08:40:03;;;;;;;39.47;22.75;;;9.60;7.90;;;;;;5056489;28;20029;-86
2022/03/25 08:42:29;;;;;;;30.90;20.50;;;9.60;99.90;;;;;;5056701;28;20028;-87
2022/03/25 08:44:55;;;;;;;34.45;21.48;;;9.70;95.60;;;;;;5039906;28;20246;-86
2022/03/25 08:47:21;;;;;;;33.47;21.52;;;9.80;99.90;;;;;;5042708;28;20048;-85
2022/03/25 08:49:47;;;;;;;35.20;22.38;;;9.90;99.90;;;;;;5039156;28;20500;-87
2022/03/25 08:52:17;;;;;;;35.22;22.15;;;10.00;1.00;;;;;;5058557;28;20480;-86
2022/03/25 08:54:43;;;;;;;31.90;20.48;;;10.10;99.90;;;;;;5054415;28;20060;-86
2022/03/25 08:57:09;;;;;;;34.80;20.50;;;10.10;25.40;;;;;;5057069;28;20113;-86
2022/03/25 08:59:35;;;;;;;31.55;20.88;;;10.30;99.90;;;;;;5056653;28;20127;-88
2022/03/25 09:02:03;;;;;;;32.40;18.38;;;10.30;1.00;;;;;;5053859;28;20066;-87
2022/03/25 09:04:30;;;;;;;27.92;18.63;;;10.20;1.00;;;;;;5055242;28;20044;-86
2022/03/25 09:06:55;;;;;;;29.90;18.85;;;10.30;5.40;;;;;;5041927;28;20119;-86
2022/03/25 09:09:24;;;;;;;29.00;18.67;;;10.40;9.90;;;;;;5043385;28;20036;-87
2022/03/25 09:11:50;;;;;;;28.15;18.80;;;10.50;1.00;;;;;;5040721;28;20041;-87
2022/03/25 09:14:17;;;;;;;26.75;18.48;;;10.70;99.90;;;;;;5041275;28;20041;-87
2022/03/25 09:16:44;;;;;;;27.52;18.80;;;10.80;1.00;;;;;;5056913;28;20500;-87
2022/03/25 09:19:15;;;;;;;25.60;18.60;;;10.90;1.00;;;;;;5040003;28;20038;-87
2022/03/25 09:21:46;;;;;;;28.27;18.42;;;11.00;1.00;;;;;;5057905;28;20106;-86
2022/03/25 09:24:23;;;;;;;28.25;18.85;;;11.00;1.00;;;;;;5045952;28;20049;-87
2022/03/25 09:26:49;;;;;;;28.13;18.88;;;11.10;1.00;;;;;;5047932;28;20056;-86
2022/03/25 09:29:15;;;;;;;27.52;19.33;;;11.10;1.00;;;;;;5039303;28;20552;-86
2022/03/25 09:31:45;;;;;;;37.53;20.52;;;11.30;1.00;;;;;;5056430;28;20048;-87
2022/03/25 09:37:02;;;;;;;27.88;19.73;;;11.60;1.00;;;;;;5058684;28;20373;-87
2022/03/25 09:39:28;;;;;;;34.92;21.30;;;11.70;1.00;;;;;;5061591;28;20048;-86
2022/03/25 09:41:54;;;;;;;30.45;20.45;;;12.00;1.00;;;;;;5040115;28;20098;-88
2022/03/25 09:44:26;;;;;;;29.83;19.85;;;12.20;1.00;;;;;;5047611;28;20405;-87
2022/03/25 09:46:55;;;;;;;28.45;19.52;;;12.20;99.90;;;;;;5041981;28;20032;-87
2022/03/25 09:49:21;;;;;;;31.52;20.50;;;12.30;99.90;;;;;;5043561;28;20531;-86
2022/03/25 09:51:46;;;;;;;33.90;20.63;;;12.40;1.00;;;;;;5052877;28;20427;-87
2022/03/25 09:54:22;;;;;;;30.20;19.90;;;12.60;99.90;;;;;;5042949;28;20069;-87
2022/03/25 09:56:53;;;;;;;28.85;19.40;;;12.70;99.90;;;;;;5062640;28;20587;-88
2022/03/25 09:59:22;;;;;;;29.48;20.02;;;12.50;1.00;;;;;;5056552;28;20445;-87
2022/03/25 10:01:51;;;;;;;31.63;19.27;;;12.60;99.90;;;;;;5060132;28;20048;-88
2022/03/25 10:04:39;;;;;;;37.95;20.55;;;12.70;99.90;;;;;;5043373;28;20056;-87
2022/03/25 10:07:27;;;;;;;30.77;18.85;;;12.60;99.90;;;;;;5043873;28;20215;-87
2022/03/25 10:10:10;;;;;;;31.08;19.85;;;13.10;99.90;;;;;;5060102;28;20391;-88
2022/03/25 10:12:43;;;;;;;31.10;18.70;;;13.40;99.90;;;;;;5058477;28;20036;-86
2022/03/25 10:15:25;;;;;;;27.73;19.50;;;13.30;99.90;;;;;;5058973;28;20052;-87
2022/03/25 10:18:01;;;;;;;27.35;17.80;;;13.50;99.90;;;;;;5058996;28;20128;-87
2022/03/25 10:20:32;;;;;;;27.15;17.42;;;13.40;99.90;;;;;;5057485;28;20076;-88
2022/03/25 10:23:09;;;;;;;26.77;16.15;;;13.30;99.90;;;;;;5059079;28;20056;-87
2022/03/25 10:26:01;;;;;;;28.10;17.95;;;13.50;99.90;;;;;;5043566;28;20078;-87
2022/03/25 10:28:30;;;;;;;29.55;17.13;;;13.60;99.90;;;;;;5058904;28;20297;-87
2022/03/25 10:31:04;;;;;;;27.50;17.10;;;13.60;99.90;;;;;;5058973;28;20032;-89
2022/03/25 10:33:43;;;;;;;25.52;15.75;;;14.00;99.90;;;;;;5042501;28;20421;-87
2022/03/25 10:36:17;;;;;;;22.95;15.00;;;14.30;99.90;;;;;;5074115;28;20789;-87
2022/03/25 10:39:16;;;;;;;25.47;15.37;;;14.50;99.90;;;;;;5043571;28;20460;-87
2022/03/25 10:41:50;;;;;;;19.52;13.52;;;14.30;99.90;;;;;;5057430;28;20040;-87
2022/03/25 10:44:39;;;;;;;21.70;12.60;;;14.60;99.90;;;;;;5067527;28;20052;-87
2022/03/25 10:47:23;;;;;;;20.42;12.55;;;14.80;99.90;;;;;;5042195;28;20485;-88
2022/03/25 10:49:49;;;;;;;27.27;13.90;;;15.10;99.90;;;;;;5058982;28;20052;-88
2022/03/25 10:52:32;;;;;;;21.17;11.90;;;14.90;99.90;;;;;;5057389;28;20036;-88
2022/03/25 10:55:36;;;;;;;22.00;12.50;;;14.50;99.90;;;;;;5041387;28;20036;-89
2022/03/25 10:58:08;;;;;;;22.88;13.00;;;14.80;99.90;;;;;;5019837;28;20045;-87
2022/03/25 11:00:41;;;;;;;21.80;13.20;;;15.00;99.90;;;;;;5058601;28;20056;-88
2022/03/25 11:03:10;;;;;;;24.10;13.00;;;14.70;99.90;;;;;;5054720;28;20040;-88
2022/03/25 11:05:35;;;;;;;19.88;11.05;;;15.10;99.90;;;;;;5041076;28;20039;-88
2022/03/25 11:08:01;;;;;;;18.15;12.60;;;15.40;99.90;;;;;;5057392;28;20098;-87
2022/03/25 11:10:27;;;;;;;21.38;13.95;;;15.60;99.90;;;;;;5042704;28;20037;-87
2022/03/25 11:12:56;;;;;;;26.33;13.23;;;15.70;99.90;;;;;;5060109;28;20036;-88
2022/03/25 11:15:29;;;;;;;19.63;12.80;;;15.90;99.90;;;;;;5057521;28;20044;-88
2022/03/25 11:17:57;;;;;;;23.17;12.50;;;15.60;99.90;;;;;;5058300;28;20262;-87
2022/03/25 11:20:28;;;;;;;23.27;13.85;;;15.70;99.90;;;;;;5044182;28;20040;-87
2022/03/25 11:23:16;;;;;;;24.25;15.07;;;15.90;99.90;;;;;;5056952;28;20028;-87
2022/03/25 11:26:05;;;;;;;25.67;15.35;;;15.90;99.90;;;;;;5073825;28;20059;-87
2022/03/25 11:28:34;;;;;;;24.73;16.42;;;16.10;99.90;;;;;;5057569;28;20554;-88
2022/03/25 11:31:20;;;;;;;30.20;16.85;;;15.70;99.90;;;;;;5056380;28;20040;-87
2022/03/25 11:34:16;;;;;;;27.15;15.43;;;15.60;99.90;;;;;;5038739;28;20040;-86
2022/03/25 11:36:45;;;;;;;25.75;15.80;;;15.50;99.90;;;;;;5058523;28;20209;-88
2022/03/25 11:39:22;;;;;;;25.45;16.35;;;15.30;99.90;;;;;;5053381;28;20036;-88
2022/03/25 11:41:53;;;;;;;32.38;17.38;;;15.30;99.90;;;;;;5056803;28;20040;-88
2022/03/25 11:44:25;;;;;;;27.67;16.77;;;15.50;99.90;;;;;;5061017;28;20494;-87
2022/03/25 11:47:03;;;;;;;30.83;19.95;;;15.90;99.90;;;;;;5053087;28;20072;-87
2022/03/25 11:49:36;;;;;;;28.55;17.42;;;15.80;99.90;;;;;;5060842;28;20813;-88
2022/03/25 11:52:19;;;;;;;29.45;17.58;;;16.20;99.90;;;;;;5040012;28;20474;-88
2022/03/25 11:54:59;;;;;;;34.35;18.73;;;16.50;99.90;;;;;;5042339;28;20255;-88
2022/03/25 11:57:27;;;;;;;31.25;18.42;;;17.00;99.90;;;;;;5040539;28;20508;-87
2022/03/25 12:00:02;;;;;;;25.90;18.70;;;17.10;99.90;;;;;;5034343;28;20487;-87
2022/03/25 12:02:32;;;;;;;30.17;19.00;;;17.30;99.90;;;;;;5058603;28;20411;-87
2022/03/25 12:05:29;;;;;;;26.45;17.42;;;16.40;99.90;;;;;;5041308;28;20028;-88
2022/03/25 12:08:27;;;;;;;26.25;17.17;;;17.00;99.90;;;;;;5042478;28;20048;-88
2022/03/25 12:10:54;;;;;;;29.30;19.27;;;17.00;99.90;;;;;;5058755;28;20082;-87
2022/03/25 12:13:21;;;;;;;30.20;20.38;;;16.50;99.90;;;;;;5037894;28;20110;-87
2022/03/25 12:15:55;;;;;;;33.88;21.13;;;16.10;99.90;;;;;;5041658;28;20035;-88
2022/03/25 12:18:44;;;;;;;32.92;20.88;;;16.00;99.90;;;;;;5037628;28;20042;-88
2022/03/25 12:21:33;;;;;;;30.65;19.58;;;16.20;99.90;;;;;;5041143;28;20401;-88
2022/03/25 12:24:00;;;;;;;30.15;19.60;;;16.70;99.90;;;;;;5045243;28;20043;-90
2022/03/25 12:26:31;;;;;;;32.05;19.42;;;16.90;99.90;;;;;;5039768;28;20371;-87
2022/03/25 12:29:00;;;;;;;27.88;18.65;;;16.90;99.90;;;;;;5056216;28;20464;-88
2022/03/25 12:31:26;;;;;;;29.67;19.25;;;16.50;99.90;;;;;;5040811;28;20072;-87
2022/03/25 12:33:53;;;;;;;35.70;20.67;;;16.50;99.90;;;;;;5054835;28;20036;-87
2022/03/25 12:36:27;;;;;;;30.67;19.60;;;16.70;99.90;;;;;;5034784;28;20037;-87
2022/03/25 12:38:58;;;;;;;31.27;18.02;;;16.30;99.90;;;;;;5056156;28;20072;-88
2022/03/25 12:41:31;;;;;;;30.63;18.80;;;16.60;99.90;;;;;;5055863;28;20036;-89
2022/03/25 12:44:02;;;;;;;29.83;17.70;;;17.00;99.90;;;;;;5036611;28;20108;-88
2022/03/25 12:46:32;;;;;;;28.25;17.15;;;16.60;99.90;;;;;;5041168;28;20040;-88
2022/03/25 12:49:05;;;;;;;25.83;16.92;;;17.10;99.90;;;;;;5040400;28;20227;-87